createdAt,value
2017-07-29T00:00:27.889Z,94478.71
2017-07-29T00:02:55.654Z,94483.63
2017-07-29T00:05:23.594Z,94480.42
2017-07-29T00:07:51.414Z,94485.49
2017-07-29T00:10:19.231Z,94478.71
2017-07-29T00:12:47.179Z,94474.23
2017-07-29T00:15:15.019Z,94479.55
2017-07-29T00:17:42.805Z,94481.41
2017-07-29T00:20:10.662Z,94479.39
2017-07-29T00:22:38.407Z,94480.33
2017-07-29T00:25:06.312Z,94483.47
2017-07-29T00:27:34.107Z,94479.68
2017-07-29T00:30:01.935Z,94476.23
2017-07-29T00:32:29.819Z,94472.33
2017-07-29T00:34:57.608Z,94468.96
2017-07-29T00:37:26.345Z,94467.89
2017-07-29T00:39:54.169Z,94474.37
2017-07-29T00:42:22.053Z,94470.88
2017-07-29T00:44:50.928Z,94476.59
2017-07-29T00:47:18.735Z,94477.62
2017-07-29T00:49:46.605Z,94474.00
2017-07-29T00:52:14.314Z,94473.53
2017-07-29T00:54:42.427Z,94481.16
2017-07-29T00:57:10.194Z,94470.03
2017-07-29T00:59:38.016Z,94469.63
2017-07-29T01:02:05.866Z,94475.86
2017-07-29T01:04:33.667Z,94478.67
2017-07-29T01:07:01.605Z,94480.64
2017-07-29T01:09:30.477Z,94474.17
2017-07-29T01:11:58.437Z,94460.87
2017-07-29T01:14:26.241Z,94466.19
2017-07-29T01:16:53.998Z,94465.50
2017-07-29T01:19:21.922Z,94466.14
2017-07-29T01:21:49.728Z,94462.22
2017-07-29T01:24:17.524Z,94468.64
2017-07-29T01:26:45.391Z,94463.19
2017-07-29T01:29:13.184Z,94465.05
2017-07-29T01:31:41.096Z,94469.60
2017-07-29T01:34:08.919Z,94464.44
2017-07-29T01:36:36.818Z,94466.78
2017-07-29T01:39:04.819Z,94461.71
2017-07-29T01:41:32.712Z,94457.63
2017-07-29T01:44:00.503Z,94458.42
2017-07-29T01:46:28.240Z,94459.74
2017-07-29T01:48:56.170Z,94457.98
2017-07-29T01:51:24.345Z,94458.89
2017-07-29T01:53:52.248Z,94456.51
2017-07-29T01:56:20.196Z,94464.46
2017-07-29T01:58:48.025Z,94467.50
2017-07-29T02:01:15.943Z,94471.52
2017-07-29T02:03:43.808Z,94480.44
2017-07-29T02:06:11.700Z,94480.38
2017-07-29T02:08:39.592Z,94477.53
2017-07-29T02:11:07.334Z,94483.48
2017-07-29T02:13:35.170Z,94487.87
2017-07-29T02:16:02.883Z,94486.06
2017-07-29T02:18:30.728Z,94486.30
2017-07-29T02:20:58.438Z,94491.44
2017-07-29T02:23:26.269Z,94486.28
2017-07-29T02:25:54.134Z,94485.15
2017-07-29T02:28:22.039Z,94486.83
2017-07-29T02:30:49.740Z,94485.83
2017-07-29T02:33:17.470Z,94483.61
2017-07-29T02:35:45.449Z,94491.77
2017-07-29T02:38:13.298Z,94492.11
2017-07-29T02:40:41.003Z,94494.46
2017-07-29T02:43:08.887Z,94492.48
2017-07-29T02:45:36.772Z,94493.61
2017-07-29T02:48:04.706Z,94491.39
2017-07-29T02:50:32.503Z,94491.28
2017-07-29T02:53:00.322Z,94486.69
2017-07-29T02:55:28.102Z,94483.56
2017-07-29T02:57:55.952Z,94486.73
2017-07-29T03:00:23.860Z,94482.94
2017-07-29T03:02:51.747Z,94484.33
2017-07-29T03:05:19.569Z,94477.63
2017-07-29T03:07:47.468Z,94478.66
2017-07-29T03:10:15.394Z,94485.58
2017-07-29T03:12:43.161Z,94483.37
2017-07-29T03:15:10.964Z,94474.17
2017-07-29T03:17:38.769Z,94483.88
2017-07-29T03:20:06.638Z,94479.77
2017-07-29T03:22:34.419Z,94481.23
2017-07-29T03:25:02.201Z,94489.10
2017-07-29T03:27:30.103Z,94489.17
2017-07-29T03:29:58.052Z,94498.04
2017-07-29T03:32:25.918Z,94495.45
2017-07-29T03:34:53.772Z,94496.94
2017-07-29T03:37:21.551Z,94493.75
2017-07-29T03:39:49.263Z,94489.75
2017-07-29T03:42:17.146Z,94487.19
2017-07-29T03:44:44.922Z,94487.41
2017-07-29T03:47:12.948Z,94483.36
2017-07-29T03:49:41.176Z,94479.22
2017-07-29T03:52:08.916Z,94485.64
2017-07-29T03:54:36.737Z,94475.19
2017-07-29T03:57:04.595Z,94477.63
2017-07-29T03:59:32.461Z,94478.94
2017-07-29T04:02:00.264Z,94475.13
2017-07-29T04:04:28.093Z,94477.83
2017-07-29T04:06:56.054Z,94478.23
2017-07-29T04:09:23.923Z,94477.23
2017-07-29T04:11:51.660Z,94482.91
2017-07-29T04:14:19.482Z,94479.94
2017-07-29T04:16:47.375Z,94489.17
2017-07-29T04:19:15.102Z,94488.56
2017-07-29T04:21:42.888Z,94492.63
2017-07-29T04:24:10.784Z,94497.13
2017-07-29T04:26:38.591Z,94501.34
2017-07-29T04:29:06.357Z,94507.36
2017-07-29T04:31:34.225Z,94502.02
2017-07-29T04:34:01.966Z,94511.98
2017-07-29T04:36:29.876Z,94509.03
2017-07-29T04:38:57.737Z,94519.92
2017-07-29T04:41:25.615Z,94512.72
2017-07-29T04:43:53.453Z,94515.73
2017-07-29T04:46:21.253Z,94514.20
2017-07-29T04:48:49.063Z,94518.77
2017-07-29T04:51:17.077Z,94519.73
2017-07-29T04:53:44.938Z,94514.23
2017-07-29T04:56:12.800Z,94514.35
2017-07-29T04:58:40.772Z,94515.76
2017-07-29T05:01:08.602Z,94518.21
2017-07-29T05:03:36.343Z,94515.72
2017-07-29T05:06:04.270Z,94508.66
2017-07-29T05:08:32.164Z,94509.39
2017-07-29T05:10:59.878Z,94514.25
2017-07-29T05:13:27.708Z,94512.86
2017-07-29T05:15:55.433Z,94503.99
2017-07-29T05:18:23.405Z,94513.09
2017-07-29T05:20:51.107Z,94513.91
2017-07-29T05:23:18.934Z,94516.47
2017-07-29T05:25:46.809Z,94515.53
2017-07-29T05:28:14.741Z,94521.66
2017-07-29T05:30:42.476Z,94516.72
2017-07-29T05:33:10.338Z,94519.98
2017-07-29T05:35:38.293Z,94513.14
2017-07-29T05:38:06.791Z,94513.16
2017-07-29T05:40:34.720Z,94507.09
2017-07-29T05:43:02.408Z,94511.53
2017-07-29T05:45:30.339Z,94507.55
2017-07-29T05:47:58.306Z,94518.36
2017-07-29T05:50:26.112Z,94506.44
2017-07-29T05:52:53.934Z,94523.27
2017-07-29T05:55:21.735Z,94517.14
2017-07-29T05:57:49.603Z,94516.05
2017-07-29T06:00:17.483Z,94509.85
2017-07-29T06:02:45.318Z,94507.02
2017-07-29T06:05:13.184Z,94509.43
2017-07-29T06:07:40.994Z,94507.29
2017-07-29T06:10:08.698Z,94508.42
2017-07-29T06:12:36.639Z,94514.20
2017-07-29T06:15:04.422Z,94506.44
2017-07-29T06:17:33.044Z,94509.89
2017-07-29T06:20:00.827Z,94504.81
2017-07-29T06:22:28.604Z,94502.20
2017-07-29T06:24:56.376Z,94502.17
2017-07-29T06:27:24.193Z,94506.52
2017-07-29T06:29:52.871Z,94511.29
2017-07-29T06:32:20.694Z,94517.34
2017-07-29T06:34:49.039Z,94513.98
2017-07-29T06:37:16.981Z,94513.55
2017-07-29T06:39:45.876Z,94517.91
2017-07-29T06:42:13.801Z,94507.73
2017-07-29T06:44:46.357Z,94513.09
2017-07-29T06:47:14.314Z,94512.83
2017-07-29T06:49:42.195Z,94507.70
2017-07-29T06:52:10.285Z,94508.25
2017-07-29T06:54:38.923Z,94506.07
2017-07-29T06:57:07.801Z,94500.81
2017-07-29T06:59:36.419Z,94517.34
2017-07-29T07:02:05.237Z,94507.17
2017-07-29T07:04:33.117Z,94511.31
2017-07-29T07:07:01.025Z,94502.78
2017-07-29T07:09:29.035Z,94513.64
2017-07-29T07:11:56.756Z,94513.06
2017-07-29T07:14:24.538Z,94507.30
2017-07-29T07:16:52.376Z,94506.87
2017-07-29T07:19:21.123Z,94499.20
2017-07-29T07:21:48.888Z,94498.56
2017-07-29T07:24:16.693Z,94500.27
2017-07-29T07:26:44.388Z,94499.47
2017-07-29T07:29:12.200Z,94499.50
2017-07-29T07:31:39.931Z,94494.45
2017-07-29T07:34:07.714Z,94492.51
2017-07-29T07:36:35.638Z,94490.92
2017-07-29T07:39:03.475Z,94484.07
2017-07-29T07:41:31.205Z,94484.66
2017-07-29T07:43:59.065Z,94477.34
2017-07-29T07:46:26.922Z,94483.94
2017-07-29T07:48:54.645Z,94493.52
2017-07-29T07:51:22.523Z,94490.03
2017-07-29T07:53:50.620Z,94492.14
2017-07-29T07:56:18.837Z,94497.27
2017-07-29T07:58:46.549Z,94496.55
2017-07-29T08:01:14.250Z,94499.41
2017-07-29T08:03:42.021Z,94493.91
2017-07-29T08:06:09.739Z,94492.06
2017-07-29T08:08:37.504Z,94489.58
2017-07-29T08:11:05.209Z,94481.89
2017-07-29T08:13:32.962Z,94477.42
2017-07-29T08:16:00.764Z,94481.16
2017-07-29T08:18:28.472Z,94476.52
2017-07-29T08:20:56.337Z,94476.88
2017-07-29T08:23:24.078Z,94473.43
2017-07-29T08:25:51.796Z,94473.44
2017-07-29T08:28:19.547Z,94473.13
2017-07-29T08:30:47.291Z,94466.51
2017-07-29T08:33:15.114Z,94462.55
2017-07-29T08:35:42.961Z,94465.30
2017-07-29T08:38:10.958Z,94466.16
2017-07-29T08:40:38.868Z,94463.76
2017-07-29T08:43:06.671Z,94456.34
2017-07-29T08:45:34.496Z,94451.63
2017-07-29T08:48:02.183Z,94455.41
2017-07-29T08:50:29.910Z,94444.70
2017-07-29T08:52:57.660Z,94447.95
2017-07-29T08:55:25.415Z,94446.64
2017-07-29T08:57:53.216Z,94448.84
2017-07-29T09:00:21.784Z,94448.30
2017-07-29T09:02:49.499Z,94448.77
2017-07-29T09:05:17.313Z,94445.97
2017-07-29T09:07:45.109Z,94444.76
2017-07-29T09:10:12.894Z,94442.79
2017-07-29T09:12:41.577Z,94440.86
2017-07-29T09:15:09.302Z,94437.80
2017-07-29T09:17:37.143Z,94432.60
2017-07-29T09:20:04.892Z,94436.50
2017-07-29T09:22:32.642Z,94433.00
2017-07-29T09:25:00.416Z,94429.95
2017-07-29T09:27:28.181Z,94426.16
2017-07-29T09:29:55.898Z,94417.99
2017-07-29T09:32:23.668Z,94427.79
2017-07-29T09:34:51.364Z,94410.59
2017-07-29T09:37:19.140Z,94412.25
2017-07-29T09:39:46.935Z,94419.38
2017-07-29T09:42:14.711Z,94420.52
2017-07-29T09:44:42.486Z,94408.97
2017-07-29T09:47:10.385Z,94407.36
2017-07-29T09:49:38.256Z,94403.49
2017-07-29T09:52:05.993Z,94400.05
2017-07-29T09:54:33.693Z,94397.17
2017-07-29T09:57:01.585Z,94392.39
2017-07-29T09:59:29.313Z,94383.17
2017-07-29T10:01:57.044Z,94383.98
2017-07-29T10:04:24.804Z,94386.66
2017-07-29T10:06:52.575Z,94377.45
2017-07-29T10:09:20.363Z,94386.00
2017-07-29T10:11:48.089Z,94380.52
2017-07-29T10:14:15.838Z,94367.03
2017-07-29T10:16:43.672Z,94362.45
2017-07-29T10:19:11.501Z,94362.46
2017-07-29T10:21:39.267Z,94368.11
2017-07-29T10:24:07.008Z,94359.58
2017-07-29T10:26:34.779Z,94351.20
2017-07-29T10:29:02.591Z,94357.58
2017-07-29T10:31:30.380Z,94350.77
2017-07-29T10:33:58.161Z,94355.59
2017-07-29T10:36:25.913Z,94350.64
2017-07-29T10:38:53.658Z,94342.82
2017-07-29T10:41:21.461Z,94343.67
2017-07-29T10:43:49.255Z,94343.00
2017-07-29T10:46:16.971Z,94340.41
2017-07-29T10:48:44.766Z,94340.48
2017-07-29T10:51:12.478Z,94343.38
2017-07-29T10:53:40.253Z,94329.59
2017-07-29T10:56:08.069Z,94328.43
2017-07-29T10:58:35.798Z,94327.40
2017-07-29T11:01:03.501Z,94323.41
2017-07-29T11:03:31.263Z,94322.70
2017-07-29T11:05:59.032Z,94314.98
2017-07-29T11:08:26.741Z,94315.88
2017-07-29T11:10:54.536Z,94310.19
2017-07-29T11:13:22.440Z,94306.88
2017-07-29T11:15:50.253Z,94303.77
2017-07-29T11:18:18.019Z,94304.53
2017-07-29T11:20:45.754Z,94296.91
2017-07-29T11:23:13.518Z,94296.62
2017-07-29T11:25:41.331Z,94294.31
2017-07-29T11:28:09.142Z,94288.83
2017-07-29T11:30:36.859Z,94292.75
2017-07-29T11:33:04.686Z,94286.46
2017-07-29T11:35:32.440Z,94281.34
2017-07-29T11:38:00.176Z,94281.75
2017-07-29T11:40:27.919Z,94280.61
2017-07-29T11:42:56.413Z,94271.72
2017-07-29T11:45:24.304Z,94272.80
2017-07-29T11:47:52.106Z,94273.95
2017-07-29T11:50:19.868Z,94270.47
2017-07-29T11:52:47.578Z,94265.18
2017-07-29T11:55:15.296Z,94260.78
2017-07-29T11:57:43.044Z,94260.92
2017-07-29T12:00:10.849Z,94250.51
2017-07-29T12:02:38.643Z,94253.63
2017-07-29T12:05:06.568Z,94250.19
2017-07-29T12:07:34.320Z,94245.70
2017-07-29T12:10:02.018Z,94245.38
2017-07-29T12:12:29.771Z,94248.55
2017-07-29T12:14:57.503Z,94247.55
2017-07-29T12:17:25.272Z,94242.62
2017-07-29T12:19:52.977Z,94242.64
2017-07-29T12:22:20.705Z,94241.38
2017-07-29T12:24:48.449Z,94243.27
2017-07-29T12:27:16.174Z,94239.95
2017-07-29T12:29:43.926Z,94239.39
2017-07-29T12:32:11.685Z,94235.30
2017-07-29T12:34:39.523Z,94234.27
2017-07-29T12:37:07.350Z,94234.91
2017-07-29T12:39:36.221Z,94230.87
2017-07-29T12:42:04.068Z,94228.41
2017-07-29T12:44:32.710Z,94228.12
2017-07-29T12:47:01.283Z,94231.98
2017-07-29T12:49:29.020Z,94227.21
2017-07-29T12:51:56.785Z,94225.89
2017-07-29T12:54:24.477Z,94228.70
2017-07-29T12:56:52.206Z,94224.36
2017-07-29T12:59:20.012Z,94221.23
2017-07-29T13:01:47.784Z,94221.84
2017-07-29T13:04:15.531Z,94221.48
2017-07-29T13:06:43.269Z,94221.67
2017-07-29T13:09:10.986Z,94215.03
2017-07-29T13:11:38.755Z,94209.36
2017-07-29T13:14:06.501Z,94215.87
2017-07-29T13:16:34.256Z,94207.92
2017-07-29T13:19:03.191Z,94208.33
2017-07-29T13:21:30.924Z,94212.37
2017-07-29T13:23:58.684Z,94212.55
2017-07-29T13:26:26.459Z,94213.20
2017-07-29T13:28:54.187Z,94213.09
2017-07-29T13:31:21.916Z,94210.56
2017-07-29T13:33:49.725Z,94211.62
2017-07-29T13:36:17.458Z,94206.38
2017-07-29T13:38:45.262Z,94206.95
2017-07-29T13:41:13.056Z,94203.66
2017-07-29T13:43:40.831Z,94205.78
2017-07-29T13:46:08.545Z,94215.94
2017-07-29T13:48:36.328Z,94204.50
2017-07-29T13:51:04.185Z,94205.22
2017-07-29T13:53:31.900Z,94201.72
2017-07-29T13:55:59.846Z,94203.42
2017-07-29T13:58:27.741Z,94201.97
2017-07-29T14:00:55.557Z,94203.64
2017-07-29T14:03:23.489Z,94202.21
2017-07-29T14:05:51.272Z,94207.83
2017-07-29T14:08:19.030Z,94201.76
2017-07-29T14:10:46.928Z,94202.44
2017-07-29T14:13:14.643Z,94210.64
2017-07-29T14:15:42.380Z,94203.70
2017-07-29T14:18:10.394Z,94208.92
2017-07-29T14:20:38.143Z,94207.90
2017-07-29T14:23:05.882Z,94213.31
2017-07-29T14:25:34.821Z,94207.13
2017-07-29T14:28:02.555Z,94201.05
2017-07-29T14:30:30.281Z,94207.45
2017-07-29T14:32:58.063Z,94202.98
2017-07-29T14:35:26.177Z,94204.34
2017-07-29T14:37:53.881Z,94202.22
2017-07-29T14:40:21.722Z,94208.33
2017-07-29T14:42:49.493Z,94203.20
2017-07-29T14:45:17.340Z,94199.21
2017-07-29T14:47:45.294Z,94201.64
2017-07-29T14:50:13.066Z,94200.69
2017-07-29T14:52:40.902Z,94200.36
2017-07-29T14:55:08.607Z,94195.55
2017-07-29T14:57:36.465Z,94186.77
2017-07-29T15:00:04.317Z,94194.33
2017-07-29T15:02:32.158Z,94193.16
2017-07-29T15:04:59.910Z,94190.93
2017-07-29T15:07:27.694Z,94188.39
2017-07-29T15:09:55.433Z,94185.62
2017-07-29T15:12:23.256Z,94190.25
2017-07-29T15:14:51.035Z,94189.92
2017-07-29T15:17:18.836Z,94195.45
2017-07-29T15:19:46.596Z,94192.69
2017-07-29T15:22:14.313Z,94193.52
2017-07-29T15:24:42.085Z,94190.25
2017-07-29T15:27:09.909Z,94190.27
2017-07-29T15:29:37.782Z,94190.19
2017-07-29T15:32:05.558Z,94197.73
2017-07-29T15:34:33.395Z,94190.78
2017-07-29T15:37:01.155Z,94193.98
2017-07-29T15:39:28.954Z,94188.11
2017-07-29T15:41:59.566Z,94189.79
2017-07-29T15:44:27.618Z,94186.02
2017-07-29T15:46:55.344Z,94181.20
2017-07-29T15:49:23.114Z,94186.00
2017-07-29T15:51:50.894Z,94179.98
2017-07-29T15:54:18.638Z,94177.79
2017-07-29T15:56:46.411Z,94178.61
2017-07-29T15:59:14.165Z,94181.12
2017-07-29T16:01:41.992Z,94187.38
2017-07-29T16:04:09.796Z,94184.43
2017-07-29T16:06:37.561Z,94182.23
2017-07-29T16:09:05.434Z,94183.77
2017-07-29T16:11:33.411Z,94181.83
2017-07-29T16:14:01.271Z,94175.63
2017-07-29T16:16:29.264Z,94180.11
2017-07-29T16:18:57.078Z,94175.72
2017-07-29T16:21:25.001Z,94174.62
2017-07-29T16:23:52.772Z,94174.39
2017-07-29T16:26:20.527Z,94172.98
2017-07-29T16:28:48.308Z,94174.30
2017-07-29T16:31:16.313Z,94175.12
2017-07-29T16:33:44.179Z,94182.70
2017-07-29T16:36:12.060Z,94185.67
2017-07-29T16:38:41.253Z,94189.30
2017-07-29T16:41:09.605Z,94185.19
2017-07-29T16:43:37.414Z,94186.86
2017-07-29T16:46:05.232Z,94191.09
2017-07-29T16:48:32.994Z,94194.20
2017-07-29T16:51:00.768Z,94195.86
2017-07-29T16:53:28.628Z,94188.81
2017-07-29T16:55:56.711Z,94190.56
2017-07-29T16:58:24.523Z,94192.86
2017-07-29T17:00:52.394Z,94193.88
2017-07-29T17:03:20.935Z,94193.67
2017-07-29T17:05:48.758Z,94203.34
2017-07-29T17:08:16.621Z,94194.22
2017-07-29T17:10:44.520Z,94196.25
2017-07-29T17:13:12.319Z,94195.12
2017-07-29T17:15:40.061Z,94196.01
2017-07-29T17:18:07.947Z,94190.77
2017-07-29T17:20:35.711Z,94189.30
2017-07-29T17:23:03.634Z,94194.82
2017-07-29T17:25:32.196Z,94197.08
2017-07-29T17:28:00.927Z,94194.89
2017-07-29T17:30:28.987Z,94191.88
2017-07-29T17:32:56.699Z,94187.36
2017-07-29T17:35:24.522Z,94184.81
2017-07-29T17:37:52.241Z,94180.19
2017-07-29T17:40:20.169Z,94183.27
2017-07-29T17:42:47.868Z,94188.53
2017-07-29T17:45:15.566Z,94184.95
2017-07-29T17:47:43.394Z,94184.27
2017-07-29T17:50:11.195Z,94181.08
2017-07-29T17:52:39.130Z,94180.74
2017-07-29T17:55:07.058Z,94185.66
2017-07-29T17:57:34.785Z,94183.48
2017-07-29T18:00:02.598Z,94188.06
2017-07-29T18:02:30.346Z,94192.52
2017-07-29T18:04:58.364Z,94183.22
2017-07-29T18:07:26.610Z,94180.69
2017-07-29T18:09:54.384Z,94183.52
2017-07-29T18:12:22.179Z,94184.17
2017-07-29T18:14:50.221Z,94188.14
2017-07-29T18:17:18.129Z,94184.09
2017-07-29T18:19:45.940Z,94183.50
2017-07-29T18:22:13.661Z,94183.88
2017-07-29T18:24:41.711Z,94181.13
2017-07-29T18:27:10.324Z,94192.72
2017-07-29T18:29:38.400Z,94188.56
2017-07-29T18:32:06.410Z,94189.36
2017-07-29T18:34:34.783Z,94186.47
2017-07-29T18:37:02.724Z,94190.23
2017-07-29T18:39:30.916Z,94194.10
2017-07-29T18:41:58.797Z,94200.11
2017-07-29T18:44:26.568Z,94198.53
2017-07-29T18:46:54.411Z,94201.24
2017-07-29T18:49:23.120Z,94207.22
2017-07-29T18:51:50.895Z,94203.25
2017-07-29T18:54:18.661Z,94204.57
2017-07-29T18:56:46.509Z,94207.84
2017-07-29T18:59:14.714Z,94216.89
2017-07-29T19:01:42.457Z,94224.68
2017-07-29T19:04:10.261Z,94224.92
2017-07-29T19:06:38.038Z,94225.31
2017-07-29T19:09:06.110Z,94223.91
2017-07-29T19:11:33.995Z,94238.95
2017-07-29T19:14:03.262Z,94237.88
2017-07-29T19:16:31.010Z,94236.88
2017-07-29T19:18:58.742Z,94242.20
2017-07-29T19:21:26.540Z,94242.78
2017-07-29T19:23:54.278Z,94238.84
2017-07-29T19:26:22.050Z,94247.78
2017-07-29T19:28:49.844Z,94244.55
2017-07-29T19:31:17.702Z,94247.91
2017-07-29T19:33:46.409Z,94247.23
2017-07-29T19:36:14.231Z,94250.77
2017-07-29T19:38:42.094Z,94242.05
2017-07-29T19:41:10.570Z,94248.95
2017-07-29T19:43:38.741Z,94247.86
2017-07-29T19:46:06.496Z,94240.39
2017-07-29T19:48:34.300Z,94243.20
2017-07-29T19:51:02.576Z,94243.45
2017-07-29T19:53:30.367Z,94248.06
2017-07-29T19:55:58.164Z,94238.86
2017-07-29T19:58:26.406Z,94247.83
2017-07-29T20:00:54.102Z,94255.84
2017-07-29T20:03:21.887Z,94262.51
2017-07-29T20:05:49.761Z,94266.22
2017-07-29T20:08:17.445Z,94265.95
2017-07-29T20:10:45.242Z,94263.23
2017-07-29T20:13:12.986Z,94255.70
2017-07-29T20:15:40.784Z,94257.33
2017-07-29T20:18:08.492Z,94264.88
2017-07-29T20:20:36.484Z,94266.49
2017-07-29T20:23:04.266Z,94263.80
2017-07-29T20:25:32.008Z,94263.39
2017-07-29T20:27:59.853Z,94262.52
2017-07-29T20:30:27.620Z,94257.92
2017-07-29T20:32:55.430Z,94259.69
2017-07-29T20:35:23.136Z,94255.25
2017-07-29T20:37:51.016Z,94261.17
2017-07-29T20:40:18.731Z,94264.72
2017-07-29T20:42:46.514Z,94267.88
2017-07-29T20:45:14.317Z,94266.58
2017-07-29T20:47:42.372Z,94260.16
2017-07-29T20:50:10.155Z,94260.66
2017-07-29T20:52:38.003Z,94255.31
2017-07-29T20:55:05.793Z,94257.84
2017-07-29T20:57:33.675Z,94255.77
2017-07-29T21:00:01.450Z,94253.45
2017-07-29T21:02:29.152Z,94265.52
2017-07-29T21:04:56.914Z,94265.20
2017-07-29T21:07:24.696Z,94266.34
2017-07-29T21:09:52.419Z,94262.34
2017-07-29T21:12:20.134Z,94257.38
2017-07-29T21:14:47.928Z,94262.77
2017-07-29T21:17:15.703Z,94265.28
2017-07-29T21:19:43.569Z,94264.27
2017-07-29T21:22:11.363Z,94262.83
2017-07-29T21:24:39.075Z,94262.44
2017-07-29T21:27:06.799Z,94268.63
2017-07-29T21:29:34.623Z,94267.30
2017-07-29T21:32:02.752Z,94275.66
2017-07-29T21:34:31.708Z,94273.91
2017-07-29T21:36:59.461Z,94279.08
2017-07-29T21:39:27.183Z,94278.29
2017-07-29T21:41:55.039Z,94278.39
2017-07-29T21:44:23.110Z,94279.09
2017-07-29T21:46:50.825Z,94277.78
2017-07-29T21:49:18.840Z,94276.89
2017-07-29T21:51:47.194Z,94273.47
2017-07-29T21:54:14.912Z,94270.58
2017-07-29T21:56:42.691Z,94278.47
2017-07-29T21:59:10.438Z,94280.70
2017-07-29T22:01:38.237Z,94277.68
2017-07-29T22:04:06.281Z,94273.47
2017-07-29T22:06:34.012Z,94275.31
2017-07-29T22:09:01.745Z,94272.81
2017-07-29T22:11:29.569Z,94276.63
2017-07-29T22:13:57.325Z,94277.55
2017-07-29T22:16:25.050Z,94273.86
2017-07-29T22:18:52.749Z,94283.63
2017-07-29T22:21:20.496Z,94287.95
2017-07-29T22:23:49.210Z,94291.12
2017-07-29T22:26:17.055Z,94290.72
2017-07-29T22:28:44.766Z,94290.19
2017-07-29T22:31:12.458Z,94283.75
2017-07-29T22:33:40.219Z,94289.41
2017-07-29T22:36:08.022Z,94283.87
2017-07-29T22:38:35.787Z,94277.16
2017-07-29T22:41:03.580Z,94278.62
2017-07-29T22:43:31.324Z,94281.38
2017-07-29T22:45:59.072Z,94269.41
2017-07-29T22:48:26.775Z,94271.64
2017-07-29T22:50:54.790Z,94281.91
2017-07-29T22:53:22.586Z,94287.94
2017-07-29T22:55:51.525Z,94290.83
2017-07-29T22:58:19.236Z,94283.06
2017-07-29T23:00:46.925Z,94279.66
2017-07-29T23:03:14.676Z,94285.72
2017-07-29T23:05:42.365Z,94285.20
2017-07-29T23:08:10.126Z,94283.34
2017-07-29T23:10:37.864Z,94284.64
2017-07-29T23:13:05.624Z,94281.59
2017-07-29T23:15:33.452Z,94279.75
2017-07-29T23:18:01.212Z,94276.88
2017-07-29T23:20:28.972Z,94270.98
2017-07-29T23:22:56.750Z,94274.27
2017-07-29T23:25:24.543Z,94275.84
2017-07-29T23:27:52.579Z,94277.16
2017-07-29T23:30:20.431Z,94278.78
2017-07-29T23:32:48.217Z,94277.55
2017-07-29T23:35:15.935Z,94275.03
2017-07-29T23:37:43.687Z,94282.33
2017-07-29T23:40:11.522Z,94280.74
2017-07-29T23:42:39.333Z,94278.53
2017-07-29T23:45:07.133Z,94274.67
2017-07-29T23:47:34.967Z,94271.13
2017-07-29T23:50:03.270Z,94267.44
2017-07-29T23:52:31.179Z,94273.88
2017-07-29T23:54:59.270Z,94272.17
2017-07-29T23:57:26.952Z,94265.58
2017-07-29T23:59:54.997Z,94266.91
